Aérodrome :
LOGIN :

S'inscrire | Disclaimer

   EN    FR    IT 

 










Légende :    VFR   VFR Marginal   IFR   IFR Intensif   IFR Très Intensif
Visi : 
Plafond : 
>= 8 km
>= 3000ft
5 à 8 km
1000 à 3000 ft
1500m à 5 km
500 à 1000 ft
800 à 1500m
200 à 500 ft
< 800m
< 200 ft
Symboles :   Orages  Brouillard  Fortes neiges  Fortes précipitations  Vent > 20 kt
SIGMETs :   Divers  Orages  Givrage  Turbulence  Onde Orograph.  Cendres Volcan.







- Altitude de l'aérodrome : 29 ft


LIRM - Grazzanise Caserta

DERNIER METAR :
  • 252155Z 02002KT CAVOK 08/08 Q1011

METARs EXPIRÉS :
  • 252055Z 06002KT CAVOK 10/10 Q1011 RMK SKC VIS MIN 9999 WIND THR06 03003KT BLU
  • 251955Z 14002KT CAVOK 11/09 Q1011 RMK SKC VIS MIN 9999 WIND THR06 10002KT BLU
  • 251855Z 15003KT CAVOK 11/10 Q1011 RMK SCT SCT200 VIS MIN 9999 WIND THR06 12003KT BLU

TAF TAF LIRM
Valide du 25 à 21h jusqu'au 26 à 06h UTC


252000Z 2521/2606 11005KT CAVOK
BECMG 2600/2602 9999 SCT025 SCT050
Pas de NOTAMs connus pour ce terrain.
1 SIGMET publié pour la FIR Roma (LIRR) :
 
Turbulence forte
LIRR SIGMET 1 VALID 252300/260230 LIIB
LIRR ROMA FIR SEV TURB FCST N OF LINE N4122 E00937 - N4232 E01346 SFC/FL080 STNR NC=



MET'MAP, la Météo Aéronautique d'un coup d'oeil ! - Copyright ORBIFLY Décembre 2007 - Disclaimer

ORBIFLY MET'MAP TEAM :

Programmation & Développement : Alexandra Zaïnal
Conception & Développement : Baudouin d'Aumeries
Co-Programmation & Développement : Marc-Olivier Méhu
Soutien technique & logistique : Manuel Goepfert

Contact : metmap@orbifly.com




SOURCES & CREDITS :

   NOAA